Kirton in Lindsey, United Kingdom
Current Conditions -  °F | °C
As of 1:50 PM on Monday 20 Oct 2014 (Local Time) from EGNJ Reporting Station
Scattered Clouds Scattered Clouds  
Wind Chill: 55°   Ceiling: Unl
Heat Index: 55°   Visibility: 5mi
Dew Point: 54°   Wind: 16mph
Humidity: 94%   Direction: 220°SW
Pressure: 29.85"   Gusts: NA
Location:  53.48°N, 0.6°W
Report Text: EGNJ 201250Z 22014KT 8000 SCT025 13/12 Q1011
Loading
Personal Weather Stations






























Interactive Weather Map
Tropical Storm Tracking
New forecast layout! Learn more

10-Day Weather Forecast

Advertisements
Track Severe Weather on mobile